San Martin, CA

3:57 PM PDT on May 23, 2017 (GMT -0700)
San Martin

Weather History for KE16 - May, 2014

Change the Weather History Date:

Wednesday, May 14, 2014

  Actual Average (KWVI) Record (KWVI)
Temperature  
Mean Temperature 74 °F -  
Max Temperature 96 °F 69 °F 97 °F (2014)
Min Temperature 53 °F 47 °F 42 °F (1999)
Cooling Degree Days 10    
Growing Degree Days 24 (Base 50)    
Moisture  
Dew Point 36 °F    
Average Humidity 28    
Maximum Humidity 58    
Minimum Humidity 10    
Precipitation  
Precipitation 0.00 in - - ()
Sea Level Pressure  
Sea Level Pressure 30.10 in    
Wind  
Wind Speed 4 mph (NW)    
Max Wind Speed 15 mph    
Max Gust Speed 24 mph    
Visibility 10 miles    
Events      
Averages and records for this station are not official NWS values.
T = Trace of Precipitation, MM = Missing Value Source: NWS Daily Summary

Daily Weather History Graph

Daily Weather History Graph

Search for Another Location

Airport or City:

Trip Planner

Search our weather history database for the weather conditions in past years. The results will help you decide how hot, cold, wet, or windy it might be!

Date:

Astronomy

May. 14, 2014 Rise Set
Actual Time 5:58 AM PDT 8:07 PM PDT
Civil Twilight 5:29 AM PDT 8:36 PM PDT
Nautical Twilight 4:54 AM PDT 9:11 PM PDT
Astronomical Twilight 4:16 AM PDT 9:50 PM PDT
Moon 8:18 PM PDT (5/14) 6:00 AM PDT (5/14)
Length of Visible Light 15h 06m
Length of Day
14h 08m
Full, 100% of the Moon is Illuminated
May 14
Full
May 14
Full
May 21
Last Quarter
May 28
New
Jun 5
First Quarter

Hourly Weather History & Observations

Time (PDT) Temp. Dew Point Humidity Pressure Visibility Wind Dir Wind Speed Gust Speed Precip Events Conditions
12:15 AM 64.4 °F 35.6 °F 34% 30.16 in 10.0 mi North 3.5 mph - N/A   Unknown
12:35 AM 62.6 °F 35.6 °F 37% 30.16 in 10.0 mi North 3.5 mph - N/A   Unknown
12:55 AM 60.8 °F 39.2 °F 45% 30.16 in 10.0 mi Calm Calm - N/A   Unknown
1:15 AM 60.8 °F 37.4 °F 42% 30.16 in 10.0 mi Calm Calm - N/A   Unknown
1:35 AM 60.8 °F 37.4 °F 42% 30.16 in 10.0 mi Calm Calm - N/A   Unknown
1:55 AM 59.0 °F 39.2 °F 48% 30.16 in 10.0 mi NNE 4.6 mph - N/A   Unknown
2:15 AM 57.2 °F 39.2 °F 51% 30.15 in 10.0 mi North 3.5 mph - N/A   Unknown
2:35 AM 57.2 °F 39.2 °F 51% 30.15 in 10.0 mi NNE 3.5 mph - N/A   Unknown
2:55 AM 57.2 °F 39.2 °F 51% 30.14 in 10.0 mi North 5.8 mph - N/A   Unknown
3:15 AM 57.2 °F 39.2 °F 51% 30.14 in 10.0 mi North 5.8 mph - N/A   Unknown
3:35 AM 57.2 °F 37.4 °F 48% 30.14 in 10.0 mi Calm Calm - N/A   Unknown
3:55 AM 57.2 °F 39.2 °F 51% 30.14 in 10.0 mi Calm Calm - N/A   Unknown
4:15 AM 55.4 °F 39.2 °F 54% 30.14 in 10.0 mi Calm Calm - N/A   Unknown
4:35 AM 55.4 °F 39.2 °F 54% 30.13 in 10.0 mi Calm Calm - N/A   Unknown
4:55 AM 55.4 °F 39.2 °F 54% 30.14 in 10.0 mi Calm Calm - N/A   Unknown
5:15 AM 55.4 °F 39.2 °F 54% 30.13 in 10.0 mi Calm Calm - N/A   Unknown
5:35 AM 55.4 °F 39.2 °F 54% 30.14 in 10.0 mi Calm Calm - N/A   Unknown
5:55 AM 55.4 °F 39.2 °F 54% 30.14 in 10.0 mi Calm Calm - N/A   Unknown
6:15 AM 55.4 °F 39.2 °F 54% 30.14 in 10.0 mi Calm Calm - N/A   Unknown
6:35 AM 53.6 °F 39.2 °F 58% 30.14 in 10.0 mi Calm Calm - N/A   Unknown
6:55 AM 55.4 °F 41.0 °F 58% 30.15 in 10.0 mi Calm Calm - N/A   Unknown
7:35 AM 59.0 °F 39.2 °F 48% 30.15 in 10.0 mi Calm Calm - N/A   Unknown
7:55 AM 62.6 °F 39.2 °F 42% 30.15 in 10.0 mi NNE 3.5 mph - N/A   Unknown
8:15 AM 66.2 °F 37.4 °F 35% 30.14 in 10.0 mi Calm Calm - N/A   Unknown
8:35 AM 68.0 °F 37.4 °F 33% 30.14 in 5.0 mi Calm Calm - N/A   Haze
8:55 AM 71.6 °F 37.4 °F 29% 30.14 in 10.0 mi Calm Calm - N/A   Unknown
9:15 AM 73.4 °F 35.6 °F 25% 30.14 in 10.0 mi Calm Calm - N/A   Unknown
9:55 AM 77.0 °F 35.6 °F 22% 30.14 in 10.0 mi Calm Calm - N/A   Clear
10:35 AM 82.4 °F 35.6 °F 19% 30.13 in 10.0 mi Calm Calm - N/A   Clear
10:55 AM 84.2 °F 35.6 °F 18% 30.13 in 10.0 mi Calm Calm - N/A   Clear
11:15 AM 86.0 °F 35.6 °F 17% 30.13 in 10.0 mi NNW 3.5 mph - N/A   Clear
11:35 AM 87.8 °F 35.6 °F 16% 30.12 in 10.0 mi Calm Calm - N/A   Clear
11:55 AM 89.6 °F 35.6 °F 15% 30.11 in 10.0 mi Calm Calm - N/A   Clear
12:15 PM 91.4 °F 32.0 °F 12% 30.11 in 10.0 mi South 4.6 mph - N/A   Clear
12:35 PM 91.4 °F 33.8 °F 13% 30.10 in 10.0 mi North 3.5 mph - N/A   Clear
12:55 PM 93.2 °F 32.0 °F 11% 30.09 in 10.0 mi South 4.6 mph - N/A   Clear
1:15 PM 93.2 °F 32.0 °F 11% 30.09 in 10.0 mi SSW 3.5 mph - N/A   Clear
1:55 PM 95.0 °F 33.8 °F 12% 30.07 in 10.0 mi SW 10.4 mph 16.1 mph N/A   Clear
2:15 PM 95.0 °F 33.8 °F 12% 30.07 in 10.0 mi WSW 9.2 mph 16.1 mph N/A   Clear
2:35 PM 95.0 °F 32.0 °F 11% 30.07 in 10.0 mi SW 6.9 mph - N/A   Clear
2:55 PM 95.0 °F 32.0 °F 11% 30.06 in 10.0 mi SW 9.2 mph 16.1 mph N/A   Clear
3:15 PM 95.0 °F 32.0 °F 11% 30.06 in 10.0 mi SSW 10.4 mph 18.4 mph N/A   Clear
3:35 PM 95.0 °F 32.0 °F 11% 30.06 in 10.0 mi WSW 10.4 mph - N/A   Clear
3:55 PM 96.8 °F 32.0 °F 10% 30.05 in 10.0 mi SSW 10.4 mph 18.4 mph N/A   Clear
4:15 PM 95.0 °F 32.0 °F 11% 30.04 in 10.0 mi SW 12.7 mph 17.3 mph N/A   Clear
4:35 PM 95.0 °F 32.0 °F 11% 30.04 in 10.0 mi WSW 11.5 mph 18.4 mph N/A   Unknown
4:55 PM 95.0 °F 33.8 °F 12% 30.04 in 10.0 mi West 10.4 mph - N/A   Unknown
5:15 PM 95.0 °F 35.6 °F 12% 30.04 in 10.0 mi NW 12.7 mph 19.6 mph N/A   Unknown
5:35 PM 93.2 °F 37.4 °F 14% 30.04 in 10.0 mi NW 13.8 mph 20.7 mph N/A   Unknown
5:55 PM 93.2 °F 37.4 °F 14% 30.03 in 10.0 mi NW 15.0 mph 21.9 mph N/A   Unknown
6:15 PM 91.4 °F 37.4 °F 15% 30.03 in 10.0 mi NW 15.0 mph 20.7 mph N/A   Unknown
6:35 PM 91.4 °F 37.4 °F 15% 30.03 in 10.0 mi NW 12.7 mph 24.2 mph N/A   Unknown
6:55 PM 89.6 °F 37.4 °F 16% 30.03 in 10.0 mi NW 15.0 mph 20.7 mph N/A   Unknown
7:15 PM 89.6 °F 35.6 °F 15% 30.03 in 10.0 mi NW 10.4 mph 19.6 mph N/A   Unknown
7:35 PM 87.8 °F 35.6 °F 16% 30.04 in 10.0 mi NW 9.2 mph - N/A   Unknown
7:55 PM 86.0 °F 35.6 °F 17% 30.05 in 10.0 mi NW 9.2 mph - N/A   Unknown
8:15 PM 84.2 °F 33.8 °F 16% 30.06 in 10.0 mi NW 8.1 mph - N/A   Unknown
8:35 PM 84.2 °F 33.8 °F 16% 30.07 in 10.0 mi NNW 5.8 mph - N/A   Unknown
8:55 PM 82.4 °F 35.6 °F 19% 30.07 in 10.0 mi NNW 5.8 mph - N/A   Unknown
9:15 PM 80.6 °F 35.6 °F 20% 30.08 in 10.0 mi NNW 6.9 mph - N/A   Unknown
9:35 PM 78.8 °F 33.8 °F 20% 30.08 in 10.0 mi NNW 6.9 mph - N/A   Unknown
9:55 PM 75.2 °F 35.6 °F 24% 30.09 in 10.0 mi NNW 8.1 mph - N/A   Unknown
10:15 PM 77.0 °F 33.8 °F 21% 30.09 in 10.0 mi NNW 6.9 mph - N/A   Unknown
10:35 PM 75.2 °F 33.8 °F 22% 30.10 in 10.0 mi NNW 4.6 mph - N/A   Unknown
10:55 PM 73.4 °F 35.6 °F 25% 30.10 in 10.0 mi NNW 5.8 mph - N/A   Unknown
11:15 PM 73.4 °F 33.8 °F 23% 30.10 in 10.0 mi NNW 6.9 mph - N/A   Unknown
11:35 PM 75.2 °F 33.8 °F 22% 30.10 in 10.0 mi NW 9.2 mph - N/A   Unknown
11:55 PM 73.4 °F 33.8 °F 23% 30.11 in 10.0 mi NNW 8.1 mph - N/A   Unknown